sensor_id;sensor_type;location;lat;lon;timestamp;pressure;altitude;pressure_sealevel;temperature;humidity
52032;BME280;38044;45.148;39.604;2023-02-28T00:00:16;101729.28;;;7.95;57.93
52032;BME280;38044;45.148;39.604;2023-02-28T00:02:44;101731.88;;;7.89;58.23
52032;BME280;38044;45.148;39.604;2023-02-28T00:05:13;101700.72;;;7.50;58.89
52032;BME280;38044;45.148;39.604;2023-02-28T00:07:40;101719.63;;;7.60;58.29
52032;BME280;38044;45.148;39.604;2023-02-28T00:10:07;101701.97;;;7.59;58.92
52032;BME280;38044;45.148;39.604;2023-02-28T00:12:34;101717.94;;;7.71;59.02
52032;BME280;38044;45.148;39.604;2023-02-28T00:15:01;101604.06;;;7.12;58.50
52032;BME280;38044;45.148;39.604;2023-02-28T00:17:27;101682.25;;;7.65;58.51
52032;BME280;38044;45.148;39.604;2023-02-28T00:19:53;101738.38;;;7.94;58.62
52032;BME280;38044;45.148;39.604;2023-02-28T00:22:20;101688.41;;;7.82;57.72
52032;BME280;38044;45.148;39.604;2023-02-28T00:24:46;101594.94;;;7.25;57.94
52032;BME280;38044;45.148;39.604;2023-02-28T00:27:13;101723.19;;;8.16;57.70
52032;BME280;38044;45.148;39.604;2023-02-28T00:29:39;101731.91;;;8.28;57.57
52032;BME280;38044;45.148;39.604;2023-02-28T00:32:06;101560.06;;;7.37;56.63
52032;BME280;38044;45.148;39.604;2023-02-28T00:34:32;101716.13;;;8.49;56.43
52032;BME280;38044;45.148;39.604;2023-02-28T00:37:07;101740.91;;;8.56;56.62
52032;BME280;38044;45.148;39.604;2023-02-28T00:39:35;101731.50;;;8.37;57.31
52032;BME280;38044;45.148;39.604;2023-02-28T00:42:02;101689.38;;;7.93;57.90
52032;BME280;38044;45.148;39.604;2023-02-28T00:44:28;101696.50;;;8.04;58.11
52032;BME280;38044;45.148;39.604;2023-02-28T00:46:54;101743.22;;;8.30;58.01
52032;BME280;38044;45.148;39.604;2023-02-28T00:49:21;101752.78;;;8.43;57.65
52032;BME280;38044;45.148;39.604;2023-02-28T00:51:47;101570.78;;;7.37;57.67
52032;BME280;38044;45.148;39.604;2023-02-28T00:54:13;101721.59;;;8.37;57.33
52032;BME280;38044;45.148;39.604;2023-02-28T00:56:39;101758.09;;;8.60;57.33
52032;BME280;38044;45.148;39.604;2023-02-28T00:59:05;101749.63;;;8.68;57.28
52032;BME280;38044;45.148;39.604;2023-02-28T01:01:31;101717.72;;;8.45;57.13
52032;BME280;38044;45.148;39.604;2023-02-28T01:03:57;101751.88;;;8.76;56.96
52032;BME280;38044;45.148;39.604;2023-02-28T01:06:23;101745.84;;;8.64;56.90
52032;BME280;38044;45.148;39.604;2023-02-28T01:08:48;101715.28;;;8.26;57.89
52032;BME280;38044;45.148;39.604;2023-02-28T01:11:18;101617.78;;;7.50;58.36
52032;BME280;38044;45.148;39.604;2023-02-28T01:13:45;101568.50;;;7.12;58.90
52032;BME280;38044;45.148;39.604;2023-02-28T01:16:11;101615.75;;;7.40;58.92
52032;BME280;38044;45.148;39.604;2023-02-28T01:18:39;101738.19;;;8.17;58.57
52032;BME280;38044;45.148;39.604;2023-02-28T01:21:07;101634.56;;;7.62;58.30
52032;BME280;38044;45.148;39.604;2023-02-28T01:23:34;101750.66;;;8.28;58.75
52032;BME280;38044;45.148;39.604;2023-02-28T01:26:16;101739.78;;;8.18;59.57
52032;BME280;38044;45.148;39.604;2023-02-28T01:28:42;101736.28;;;7.96;59.74
52032;BME280;38044;45.148;39.604;2023-02-28T01:31:09;101745.34;;;8.11;59.30
52032;BME280;38044;45.148;39.604;2023-02-28T01:33:36;101754.25;;;8.17;59.59
52032;BME280;38044;45.148;39.604;2023-02-28T01:36:08;101721.97;;;8.07;60.09
52032;BME280;38044;45.148;39.604;2023-02-28T01:38:35;101758.00;;;8.16;60.29
52032;BME280;38044;45.148;39.604;2023-02-28T01:41:01;101766.13;;;8.21;60.24
52032;BME280;38044;45.148;39.604;2023-02-28T01:44:07;101768.63;;;8.28;60.42
52032;BME280;38044;45.148;39.604;2023-02-28T01:46:51;101747.94;;;7.89;60.32
52032;BME280;38044;45.148;39.604;2023-02-28T01:49:17;101731.31;;;7.71;61.00
52032;BME280;38044;45.148;39.604;2023-02-28T01:51:46;101744.03;;;7.80;60.99
52032;BME280;38044;45.148;39.604;2023-02-28T01:54:20;101757.19;;;7.82;61.24
52032;BME280;38044;45.148;39.604;2023-02-28T01:56:54;101743.53;;;7.66;60.96
52032;BME280;38044;45.148;39.604;2023-02-28T02:00:08;101720.66;;;7.42;61.48
52032;BME280;38044;45.148;39.604;2023-02-28T02:02:16;101754.31;;;7.55;62.06
52032;BME280;38044;45.148;39.604;2023-02-28T02:05:07;101764.53;;;7.58;62.28
52032;BME280;38044;45.148;39.604;2023-02-28T02:07:40;101765.50;;;7.52;62.39
52032;BME280;38044;45.148;39.604;2023-02-28T02:10:29;101626.56;;;6.83;61.57
52032;BME280;38044;45.148;39.604;2023-02-28T02:13:12;101734.63;;;7.44;62.02
52032;BME280;38044;45.148;39.604;2023-02-28T02:34:22;101786.63;;;7.65;62.67
52032;BME280;38044;45.148;39.604;2023-02-28T02:37:02;101743.06;;;7.53;61.47
52032;BME280;38044;45.148;39.604;2023-02-28T02:39:58;101777.81;;;7.81;61.80
52032;BME280;38044;45.148;39.604;2023-02-28T02:42:33;101792.09;;;7.87;60.53
52032;BME280;38044;45.148;39.604;2023-02-28T02:45:07;101746.63;;;7.75;60.40
52032;BME280;38044;45.148;39.604;2023-02-28T02:47:35;101771.09;;;7.96;59.55
52032;BME280;38044;45.148;39.604;2023-02-28T02:50:06;101774.25;;;7.93;59.51
52032;BME280;38044;45.148;39.604;2023-02-28T02:52:40;101640.69;;;7.12;58.93
52032;BME280;38044;45.148;39.604;2023-02-28T02:55:08;101771.09;;;7.96;58.95
52032;BME280;38044;45.148;39.604;2023-02-28T02:57:50;101771.31;;;7.94;58.83
52032;BME280;38044;45.148;39.604;2023-02-28T03:00:22;101729.53;;;7.76;58.72
52032;BME280;38044;45.148;39.604;2023-02-28T03:02:49;101747.28;;;7.82;58.47
52032;BME280;38044;45.148;39.604;2023-02-28T03:05:24;101748.19;;;7.88;58.49
52032;BME280;38044;45.148;39.604;2023-02-28T03:07:51;101736.66;;;7.71;58.43
52032;BME280;38044;45.148;39.604;2023-02-28T03:10:36;101754.25;;;7.83;59.14
52032;BME280;38044;45.148;39.604;2023-02-28T03:18:44;101748.53;;;7.46;60.71
52032;BME280;38044;45.148;39.604;2023-02-28T03:24:31;101755.50;;;7.30;61.68
52032;BME280;38044;45.148;39.604;2023-02-28T03:27:07;101496.41;;;5.57;61.94
52032;BME280;38044;45.148;39.604;2023-02-28T03:29:42;101378.03;;;4.82;61.49
52032;BME280;38044;45.148;39.604;2023-02-28T03:32:23;101757.31;;;7.41;61.51
52032;BME280;38044;45.148;39.604;2023-02-28T03:35:30;101757.16;;;7.48;61.18
52032;BME280;38044;45.148;39.604;2023-02-28T03:38:53;101527.69;;;5.97;61.39
52032;BME280;38044;45.148;39.604;2023-02-28T03:41:04;101482.03;;;5.70;61.38
52032;BME280;38044;45.148;39.604;2023-02-28T03:43:34;101737.06;;;7.17;62.05
52032;BME280;38044;45.148;39.604;2023-02-28T03:46:06;101746.94;;;7.16;62.36
52032;BME280;38044;45.148;39.604;2023-02-28T03:48:41;101742.19;;;7.18;62.06
52032;BME280;38044;45.148;39.604;2023-02-28T03:51:11;101708.06;;;6.97;61.66
52032;BME280;38044;45.148;39.604;2023-02-28T03:53:46;101594.00;;;6.28;60.97
52032;BME280;38044;45.148;39.604;2023-02-28T03:56:19;101727.06;;;7.12;61.60
52032;BME280;38044;45.148;39.604;2023-02-28T03:58:58;101734.66;;;7.04;62.15
52032;BME280;38044;45.148;39.604;2023-02-28T04:01:39;101598.59;;;6.04;63.31
52032;BME280;38044;45.148;39.604;2023-02-28T04:04:10;101731.28;;;6.68;63.73
52032;BME280;38044;45.148;39.604;2023-02-28T04:06:36;101710.66;;;6.51;64.08
52032;BME280;38044;45.148;39.604;2023-02-28T04:09:04;101607.03;;;5.78;64.35
52032;BME280;38044;45.148;39.604;2023-02-28T04:11:40;101700.34;;;6.31;65.26
52032;BME280;38044;45.148;39.604;2023-02-28T04:14:08;101565.78;;;5.33;65.22
52032;BME280;38044;45.148;39.604;2023-02-28T04:16:36;101741.75;;;6.58;64.92
52032;BME280;38044;45.148;39.604;2023-02-28T04:19:04;101737.69;;;6.67;64.53
52032;BME280;38044;45.148;39.604;2023-02-28T04:21:33;101701.59;;;6.52;64.71
52032;BME280;38044;45.148;39.604;2023-02-28T04:23:59;101739.63;;;6.83;64.12
52032;BME280;38044;45.148;39.604;2023-02-28T04:26:36;101606.22;;;6.01;64.06
52032;BME280;38044;45.148;39.604;2023-02-28T04:29:04;101722.69;;;6.66;64.16
52032;BME280;38044;45.148;39.604;2023-02-28T04:31:31;101728.22;;;6.88;63.71
52032;BME280;38044;45.148;39.604;2023-02-28T04:33:57;101704.69;;;7.02;62.89
52032;BME280;38044;45.148;39.604;2023-02-28T04:36:22;101591.38;;;6.45;62.27
52032;BME280;38044;45.148;39.604;2023-02-28T04:38:49;101730.56;;;7.41;61.72
52032;BME280;38044;45.148;39.604;2023-02-28T04:41:16;101765.31;;;7.70;61.32
52032;BME280;38044;45.148;39.604;2023-02-28T04:43:42;101762.19;;;7.78;61.23
52032;BME280;38044;45.148;39.604;2023-02-28T04:46:08;101718.72;;;7.54;60.76
52032;BME280;38044;45.148;39.604;2023-02-28T04:48:38;101642.09;;;7.14;60.78
52032;BME280;38044;45.148;39.604;2023-02-28T04:51:10;101789.47;;;8.09;60.81
52032;BME280;38044;45.148;39.604;2023-02-28T04:53:37;101779.25;;;8.23;60.40
52032;BME280;38044;45.148;39.604;2023-02-28T04:56:05;101690.50;;;7.80;60.34
52032;BME280;38044;45.148;39.604;2023-02-28T04:58:32;101777.84;;;8.54;60.20
52032;BME280;38044;45.148;39.604;2023-02-28T05:01:14;101626.94;;;7.71;60.91
52032;BME280;38044;45.148;39.604;2023-02-28T05:03:41;101786.28;;;8.63;60.56
52032;BME280;38044;45.148;39.604;2023-02-28T05:06:08;101707.19;;;8.21;60.91
52032;BME280;38044;45.148;39.604;2023-02-28T05:08:34;101756.59;;;8.69;60.88
52032;BME280;38044;45.148;39.604;2023-02-28T05:11:01;101786.84;;;9.09;59.95
52032;BME280;38044;45.148;39.604;2023-02-28T05:13:27;101788.34;;;9.21;59.54
52032;BME280;38044;45.148;39.604;2023-02-28T05:15:53;101676.06;;;8.59;59.34
52032;BME280;38044;45.148;39.604;2023-02-28T05:18:19;101763.56;;;9.14;59.57
52032;BME280;38044;45.148;39.604;2023-02-28T05:20:45;101780.97;;;9.34;59.59
52032;BME280;38044;45.148;39.604;2023-02-28T05:23:12;101783.72;;;9.44;59.82
52032;BME280;38044;45.148;39.604;2023-02-28T05:25:39;101668.88;;;8.87;59.49
52032;BME280;38044;45.148;39.604;2023-02-28T05:28:06;101791.66;;;9.88;57.47
52032;BME280;38044;45.148;39.604;2023-02-28T05:30:32;101796.13;;;10.09;57.25
52032;BME280;38044;45.148;39.604;2023-02-28T05:32:58;101807.66;;;10.37;56.18
52032;BME280;38044;45.148;39.604;2023-02-28T05:35:25;101614.69;;;9.49;54.35
52032;BME280;38044;45.148;39.604;2023-02-28T05:37:51;101761.28;;;10.62;53.43
52032;BME280;38044;45.148;39.604;2023-02-28T05:40:17;101671.13;;;10.39;52.58
52032;BME280;38044;45.148;39.604;2023-02-28T05:42:44;101780.38;;;11.44;51.78
52032;BME280;38044;45.148;39.604;2023-02-28T05:45:10;101643.56;;;10.95;51.67
52032;BME280;38044;45.148;39.604;2023-02-28T05:47:36;101784.22;;;12.25;50.04
52032;BME280;38044;45.148;39.604;2023-02-28T05:50:03;101610.75;;;11.54;48.78
52032;BME280;38044;45.148;39.604;2023-02-28T05:52:29;101718.38;;;13.01;47.48
52032;BME280;38044;45.148;39.604;2023-02-28T05:54:58;101770.63;;;13.99;45.64
52032;BME280;38044;45.148;39.604;2023-02-28T05:57:23;101782.13;;;14.39;44.41
52032;BME280;38044;45.148;39.604;2023-02-28T05:59:49;101789.03;;;14.55;44.36
52032;BME280;38044;45.148;39.604;2023-02-28T06:02:16;101787.81;;;14.67;43.36
52032;BME280;38044;45.148;39.604;2023-02-28T06:04:43;101760.66;;;14.53;43.36
52032;BME280;38044;45.148;39.604;2023-02-28T06:07:09;101745.53;;;14.47;43.53
52032;BME280;38044;45.148;39.604;2023-02-28T06:09:35;101722.03;;;14.42;43.42
52032;BME280;38044;45.148;39.604;2023-02-28T06:12:03;101765.97;;;14.82;42.86
52032;BME280;38044;45.148;39.604;2023-02-28T06:14:32;101792.00;;;15.21;42.94
52032;BME280;38044;45.148;39.604;2023-02-28T06:16:59;101654.63;;;14.70;42.25
52032;BME280;38044;45.148;39.604;2023-02-28T06:19:25;101672.44;;;15.27;41.27
52032;BME280;38044;45.148;39.604;2023-02-28T06:21:52;101782.91;;;16.20;41.17
52032;BME280;38044;45.148;39.604;2023-02-28T06:24:23;101751.34;;;16.24;40.59
52032;BME280;38044;45.148;39.604;2023-02-28T06:26:49;101762.88;;;16.16;40.76
52032;BME280;38044;45.148;39.604;2023-02-28T06:29:14;101807.91;;;16.31;41.04
52032;BME280;38044;45.148;39.604;2023-02-28T06:31:47;101783.81;;;16.29;41.45
52032;BME280;38044;45.148;39.604;2023-02-28T06:34:13;101807.66;;;16.60;41.56
52032;BME280;38044;45.148;39.604;2023-02-28T06:36:40;101807.66;;;17.15;40.82
52032;BME280;38044;45.148;39.604;2023-02-28T06:39:07;101777.56;;;17.70;40.19
52032;BME280;38044;45.148;39.604;2023-02-28T06:41:33;101809.69;;;18.44;39.51
52032;BME280;38044;45.148;39.604;2023-02-28T06:44:12;101786.91;;;18.72;39.10
52032;BME280;38044;45.148;39.604;2023-02-28T06:46:41;101806.59;;;18.68;37.84
52032;BME280;38044;45.148;39.604;2023-02-28T06:49:08;101774.72;;;18.29;38.09
52032;BME280;38044;45.148;39.604;2023-02-28T06:51:35;101817.75;;;18.18;38.73
52032;BME280;38044;45.148;39.604;2023-02-28T06:54:02;101700.56;;;17.16;39.34
52032;BME280;38044;45.148;39.604;2023-02-28T06:56:27;101756.75;;;17.43;39.66
52032;BME280;38044;45.148;39.604;2023-02-28T06:58:54;101804.69;;;17.62;39.36
52032;BME280;38044;45.148;39.604;2023-02-28T07:01:20;101807.75;;;17.83;39.54
52032;BME280;38044;45.148;39.604;2023-02-28T07:03:48;101815.78;;;18.41;38.94
52032;BME280;38044;45.148;39.604;2023-02-28T07:06:18;101798.53;;;19.03;37.84
52032;BME280;38044;45.148;39.604;2023-02-28T07:08:44;101781.81;;;18.79;38.03
52032;BME280;38044;45.148;39.604;2023-02-28T07:11:10;101781.25;;;18.68;38.20
52032;BME280;38044;45.148;39.604;2023-02-28T07:13:36;101670.72;;;18.01;38.18
52032;BME280;38044;45.148;39.604;2023-02-28T07:16:04;101786.81;;;18.94;38.27
52032;BME280;38044;45.148;39.604;2023-02-28T07:18:31;101702.19;;;18.24;38.52
52032;BME280;38044;45.148;39.604;2023-02-28T07:20:57;101797.91;;;19.06;38.29
52032;BME280;38044;45.148;39.604;2023-02-28T07:23:23;101810.72;;;18.97;38.65
52032;BME280;38044;45.148;39.604;2023-02-28T07:25:50;101780.69;;;18.80;38.78
52032;BME280;38044;45.148;39.604;2023-02-28T07:28:16;101649.81;;;17.79;39.34
52032;BME280;38044;45.148;39.604;2023-02-28T07:30:42;101817.72;;;18.81;39.61
52032;BME280;38044;45.148;39.604;2023-02-28T07:33:08;101707.22;;;18.49;39.37
52032;BME280;38044;45.148;39.604;2023-02-28T07:35:34;101799.19;;;19.18;39.03
52032;BME280;38044;45.148;39.604;2023-02-28T07:38:00;101793.09;;;19.03;39.27
52032;BME280;38044;45.148;39.604;2023-02-28T07:40:26;101815.53;;;19.00;39.48
52032;BME280;38044;45.148;39.604;2023-02-28T07:42:52;101766.63;;;18.86;39.48
52032;BME280;38044;45.148;39.604;2023-02-28T07:45:18;101694.09;;;18.02;40.04
52032;BME280;38044;45.148;39.604;2023-02-28T07:47:45;101688.28;;;18.26;39.92
52032;BME280;38044;45.148;39.604;2023-02-28T07:50:14;101713.56;;;19.01;39.63
52032;BME280;38044;45.148;39.604;2023-02-28T07:52:40;101785.56;;;19.52;38.93
52032;BME280;38044;45.148;39.604;2023-02-28T07:55:08;101690.75;;;18.62;39.45
52032;BME280;38044;45.148;39.604;2023-02-28T07:57:35;101726.13;;;18.54;40.00
52032;BME280;38044;45.148;39.604;2023-02-28T08:00:02;101699.25;;;18.12;40.25
52032;BME280;38044;45.148;39.604;2023-02-28T08:02:28;101819.00;;;18.75;40.91
52032;BME280;38044;45.148;39.604;2023-02-28T08:04:54;101765.34;;;18.44;40.82
52032;BME280;38044;45.148;39.604;2023-02-28T08:07:20;101811.81;;;18.56;41.09
52032;BME280;38044;45.148;39.604;2023-02-28T08:09:46;101818.19;;;18.43;41.11
52032;BME280;38044;45.148;39.604;2023-02-28T08:12:11;101696.09;;;17.65;41.28
52032;BME280;38044;45.148;39.604;2023-02-28T08:14:37;101719.53;;;17.97;41.24
52032;BME280;38044;45.148;39.604;2023-02-28T08:17:05;101804.47;;;18.65;41.12
52032;BME280;38044;45.148;39.604;2023-02-28T08:19:31;101790.41;;;18.63;41.41
52032;BME280;38044;45.148;39.604;2023-02-28T08:21:57;101809.13;;;18.65;41.01
52032;BME280;38044;45.148;39.604;2023-02-28T08:24:23;101736.09;;;18.18;41.63
52032;BME280;38044;45.148;39.604;2023-02-28T08:26:49;101666.69;;;17.67;42.09
52032;BME280;38044;45.148;39.604;2023-02-28T08:29:15;101785.63;;;18.29;42.21
52032;BME280;38044;45.148;39.604;2023-02-28T08:31:42;101777.00;;;18.05;43.04
52032;BME280;38044;45.148;39.604;2023-02-28T08:34:13;101630.13;;;17.20;42.79
52032;BME280;38044;45.148;39.604;2023-02-28T08:36:40;101776.59;;;17.89;43.32
52032;BME280;38044;45.148;39.604;2023-02-28T08:39:06;101680.75;;;17.16;43.71
52032;BME280;38044;45.148;39.604;2023-02-28T08:41:33;101818.44;;;18.01;43.89
52032;BME280;38044;45.148;39.604;2023-02-28T08:43:59;101680.59;;;17.34;43.54
52032;BME280;38044;45.148;39.604;2023-02-28T08:46:25;101761.50;;;17.83;44.02
52032;BME280;38044;45.148;39.604;2023-02-28T08:48:53;101720.22;;;17.81;44.15
52032;BME280;38044;45.148;39.604;2023-02-28T08:51:19;101822.81;;;18.74;44.13
52032;BME280;38044;45.148;39.604;2023-02-28T08:53:52;101798.28;;;18.74;44.29
52032;BME280;38044;45.148;39.604;2023-02-28T08:56:19;101820.81;;;18.65;44.89
52032;BME280;38044;45.148;39.604;2023-02-28T08:58:48;101761.44;;;18.28;44.87
52032;BME280;38044;45.148;39.604;2023-02-28T09:01:19;101822.47;;;18.35;45.41
52032;BME280;38044;45.148;39.604;2023-02-28T09:03:47;101822.88;;;18.20;45.63
52032;BME280;38044;45.148;39.604;2023-02-28T09:06:14;101814.47;;;18.08;45.94
52032;BME280;38044;45.148;39.604;2023-02-28T09:08:41;101766.13;;;17.82;45.84
52032;BME280;38044;45.148;39.604;2023-02-28T09:11:07;101791.28;;;17.88;46.49
52032;BME280;38044;45.148;39.604;2023-02-28T09:13:33;101661.56;;;17.12;46.41
52032;BME280;38044;45.148;39.604;2023-02-28T09:16:01;101813.84;;;18.11;46.25
52032;BME280;38044;45.148;39.604;2023-02-28T09:18:27;101796.84;;;18.05;46.52
52032;BME280;38044;45.148;39.604;2023-02-28T09:20:53;101792.41;;;18.09;46.39
52032;BME280;38044;45.148;39.604;2023-02-28T09:23:19;101803.38;;;18.27;46.54
52032;BME280;38044;45.148;39.604;2023-02-28T09:25:51;101636.72;;;17.81;46.02
52032;BME280;38044;45.148;39.604;2023-02-28T09:28:17;101789.59;;;19.11;44.75
52032;BME280;38044;45.148;39.604;2023-02-28T09:30:50;101764.22;;;19.02;44.18
52032;BME280;38044;45.148;39.604;2023-02-28T09:33:17;101787.19;;;19.36;43.87
52032;BME280;38044;45.148;39.604;2023-02-28T09:35:46;101791.53;;;19.54;43.36
52032;BME280;38044;45.148;39.604;2023-02-28T09:38:12;101787.66;;;19.55;42.31
52032;BME280;38044;45.148;39.604;2023-02-28T09:40:50;101646.09;;;19.07;42.30
52032;BME280;38044;45.148;39.604;2023-02-28T09:43:18;101782.19;;;19.90;41.88
52032;BME280;38044;45.148;39.604;2023-02-28T09:46:21;101778.78;;;20.02;42.11
52032;BME280;38044;45.148;39.604;2023-02-28T09:48:51;101758.78;;;19.37;43.75
52032;BME280;38044;45.148;39.604;2023-02-28T09:51:44;101777.06;;;19.63;44.31
52032;BME280;38044;45.148;39.604;2023-02-28T09:54:17;101623.94;;;18.48;44.63
52032;BME280;38044;45.148;39.604;2023-02-28T09:56:44;101767.63;;;19.69;44.25
52032;BME280;38044;45.148;39.604;2023-02-28T10:05:02;101638.81;;;18.33;45.31
52032;BME280;38044;45.148;39.604;2023-02-28T10:10:03;101757.34;;;19.05;45.12
52032;BME280;38044;45.148;39.604;2023-02-28T10:12:31;101767.59;;;19.17;45.17
52032;BME280;38044;45.148;39.604;2023-02-28T10:14:59;101780.78;;;19.41;44.86
52032;BME280;38044;45.148;39.604;2023-02-28T10:17:28;101774.19;;;19.16;45.08
52032;BME280;38044;45.148;39.604;2023-02-28T10:20:02;101779.00;;;19.10;44.77
52032;BME280;38044;45.148;39.604;2023-02-28T10:23:03;101776.31;;;18.30;46.43
52032;BME280;38044;45.148;39.604;2023-02-28T10:25:34;101777.78;;;18.05;46.59
52032;BME280;38044;45.148;39.604;2023-02-28T10:28:14;101777.50;;;18.07;46.41
52032;BME280;38044;45.148;39.604;2023-02-28T10:30:48;101725.34;;;17.60;47.51
52032;BME280;38044;45.148;39.604;2023-02-28T10:33:33;101781.03;;;18.07;47.50
52032;BME280;38044;45.148;39.604;2023-02-28T10:36:03;101749.50;;;17.61;47.89
52032;BME280;38044;45.148;39.604;2023-02-28T10:38:36;101770.28;;;17.79;48.14
52032;BME280;38044;45.148;39.604;2023-02-28T10:41:32;101779.44;;;17.84;48.33
52032;BME280;38044;45.148;39.604;2023-02-28T10:44:30;101769.78;;;17.77;48.03
52032;BME280;38044;45.148;39.604;2023-02-28T10:46:56;101663.00;;;16.96;48.16
52032;BME280;38044;45.148;39.604;2023-02-28T10:49:27;101727.38;;;17.54;48.07
52032;BME280;38044;45.148;39.604;2023-02-28T10:51:59;101765.97;;;17.78;48.30
52032;BME280;38044;45.148;39.604;2023-02-28T10:54:34;101768.91;;;17.91;48.05
52032;BME280;38044;45.148;39.604;2023-02-28T10:57:18;101727.13;;;17.64;48.19
52032;BME280;38044;45.148;39.604;2023-02-28T10:59:44;101756.31;;;17.72;48.56
52032;BME280;38044;45.148;39.604;2023-02-28T11:02:32;101762.25;;;17.74;48.06
52032;BME280;38044;45.148;39.604;2023-02-28T11:04:58;101648.69;;;16.81;48.47
52032;BME280;38044;45.148;39.604;2023-02-28T11:07:25;101604.78;;;16.65;48.67
52032;BME280;38044;45.148;39.604;2023-02-28T11:09:55;101692.91;;;17.18;48.76
52032;BME280;38044;45.148;39.604;2023-02-28T11:12:38;101760.44;;;17.70;48.65
52032;BME280;38044;45.148;39.604;2023-02-28T11:20:24;101769.00;;;17.18;48.45
52032;BME280;38044;45.148;39.604;2023-02-28T11:22:51;101724.81;;;16.76;49.38
52032;BME280;38044;45.148;39.604;2023-02-28T11:25:26;101760.78;;;16.96;49.79
52032;BME280;38044;45.148;39.604;2023-02-28T11:28:00;101739.88;;;16.82;49.88
52032;BME280;38044;45.148;39.604;2023-02-28T11:32:53;101755.81;;;17.48;49.86
52032;BME280;38044;45.148;39.604;2023-02-28T11:35:36;101760.53;;;17.78;49.51
52032;BME280;38044;45.148;39.604;2023-02-28T11:38:04;101736.31;;;17.46;49.15
52032;BME280;38044;45.148;39.604;2023-02-28T11:46:23;101605.88;;;16.01;50.71
52032;BME280;38044;45.148;39.604;2023-02-28T11:51:49;101702.69;;;16.41;51.31
52032;BME280;38044;45.148;39.604;2023-02-28T11:54:40;101755.34;;;16.68;51.89
52032;BME280;38044;45.148;39.604;2023-02-28T12:02:28;101644.63;;;16.15;52.62
52032;BME280;38044;45.148;39.604;2023-02-28T12:10:24;101753.44;;;17.32;52.11
52032;BME280;38044;45.148;39.604;2023-02-28T12:13:16;101725.31;;;17.28;51.53
52032;BME280;38044;45.148;39.604;2023-02-28T12:18:38;101757.66;;;17.39;50.26
52032;BME280;38044;45.148;39.604;2023-02-28T12:21:18;101761.97;;;17.17;50.64
52032;BME280;38044;45.148;39.604;2023-02-28T12:23:56;101738.91;;;16.78;50.92
52032;BME280;38044;45.148;39.604;2023-02-28T12:26:34;101758.94;;;17.05;51.41
52032;BME280;38044;45.148;39.604;2023-02-28T12:29:24;101753.31;;;17.15;50.95
52032;BME280;38044;45.148;39.604;2023-02-28T12:31:56;101757.56;;;16.94;51.21
52032;BME280;38044;45.148;39.604;2023-02-28T12:34:47;101625.16;;;15.85;51.53
52032;BME280;38044;45.148;39.604;2023-02-28T12:37:31;101744.53;;;16.40;52.11
52032;BME280;38044;45.148;39.604;2023-02-28T12:40:08;101607.19;;;15.57;52.61
52032;BME280;38044;45.148;39.604;2023-02-28T12:42:46;101751.75;;;16.59;52.54
52032;BME280;38044;45.148;39.604;2023-02-28T12:45:20;101680.50;;;16.12;52.72
52032;BME280;38044;45.148;39.604;2023-02-28T12:47:48;101762.22;;;16.79;51.60
52032;BME280;38044;45.148;39.604;2023-02-28T12:50:16;101603.31;;;15.63;51.78
52032;BME280;38044;45.148;39.604;2023-02-28T12:52:54;101714.38;;;16.28;52.09
52032;BME280;38044;45.148;39.604;2023-02-28T12:56:02;101751.94;;;16.21;52.65
52032;BME280;38044;45.148;39.604;2023-02-28T12:58:47;101729.06;;;15.81;53.52
52032;BME280;38044;45.148;39.604;2023-02-28T13:07:18;101742.81;;;15.84;54.33
52032;BME280;38044;45.148;39.604;2023-02-28T13:09:58;101724.53;;;15.76;55.12
52032;BME280;38044;45.148;39.604;2023-02-28T13:12:25;101739.03;;;15.85;55.25
52032;BME280;38044;45.148;39.604;2023-02-28T13:17:29;101723.34;;;15.82;54.78
52032;BME280;38044;45.148;39.604;2023-02-28T13:22:40;101742.94;;;15.60;55.08
52032;BME280;38044;45.148;39.604;2023-02-28T13:27:54;101759.72;;;15.05;56.02
52032;BME280;38044;45.148;39.604;2023-02-28T13:35:46;101749.66;;;14.68;57.20
52032;BME280;38044;45.148;39.604;2023-02-28T13:38:32;101722.56;;;14.44;57.38
52032;BME280;38044;45.148;39.604;2023-02-28T13:52:02;101728.78;;;13.62;59.44
52032;BME280;38044;45.148;39.604;2023-02-28T13:57:17;101715.41;;;13.76;59.67
52032;BME280;38044;45.148;39.604;2023-02-28T13:59:57;101640.00;;;13.16;59.73
52032;BME280;38044;45.148;39.604;2023-02-28T14:05:17;101724.25;;;13.52;60.09
52032;BME280;38044;45.148;39.604;2023-02-28T14:07:48;101565.97;;;12.49;60.60
52032;BME280;38044;45.148;39.604;2023-02-28T14:10:32;101608.97;;;12.74;60.62
52032;BME280;38044;45.148;39.604;2023-02-28T14:13:11;101720.94;;;13.26;60.75
52032;BME280;38044;45.148;39.604;2023-02-28T14:18:28;101756.03;;;13.21;61.49
52032;BME280;38044;45.148;39.604;2023-02-28T14:21:08;101754.47;;;13.15;62.15
52032;BME280;38044;45.148;39.604;2023-02-28T14:32:48;101769.22;;;12.78;62.84
52032;BME280;38044;45.148;39.604;2023-02-28T14:38:14;101763.41;;;12.30;63.20
52032;BME280;38044;45.148;39.604;2023-02-28T14:40:43;101608.34;;;11.12;63.72
52032;BME280;38044;45.148;39.604;2023-02-28T14:43:22;101766.97;;;11.90;64.69
52032;BME280;38044;45.148;39.604;2023-02-28T14:45:55;101736.50;;;11.48;64.85
52032;BME280;38044;45.148;39.604;2023-02-28T14:48:22;101771.50;;;11.48;65.05
52032;BME280;38044;45.148;39.604;2023-02-28T14:50:58;101780.09;;;11.35;65.39
52032;BME280;38044;45.148;39.604;2023-02-28T14:53:28;101764.44;;;11.12;65.97
52032;BME280;38044;45.148;39.604;2023-02-28T14:55:55;101645.16;;;10.12;66.45
52032;BME280;38044;45.148;39.604;2023-02-28T14:58:32;101797.19;;;10.98;66.86